createdAt,value
2018-07-19T00:02:21.505Z,76.80
2018-07-19T00:04:54.601Z,76.10
2018-07-19T00:07:27.768Z,77.40
2018-07-19T00:10:00.914Z,79.00
2018-07-19T00:12:34.094Z,77.30
2018-07-19T00:15:07.212Z,76.10
2018-07-19T00:17:40.379Z,75.90
2018-07-19T00:20:13.443Z,77.00
2018-07-19T00:22:46.529Z,76.20
2018-07-19T00:25:19.526Z,77.50
2018-07-19T00:27:52.564Z,76.30
2018-07-19T00:30:25.761Z,76.20
2018-07-19T00:32:59.028Z,74.90
2018-07-19T00:35:32.233Z,73.90
2018-07-19T00:38:05.293Z,73.30
2018-07-19T00:40:38.512Z,73.30
2018-07-19T00:43:11.697Z,75.10
2018-07-19T00:45:44.914Z,73.90
2018-07-19T00:48:18.004Z,76.00
2018-07-19T00:50:51.256Z,74.80
2018-07-19T00:53:24.647Z,76.10
2018-07-19T00:55:57.653Z,77.50
2018-07-19T00:58:30.767Z,76.00
2018-07-19T01:01:03.884Z,75.20
2018-07-19T01:03:37.045Z,74.50
2018-07-19T01:06:10.119Z,73.80
2018-07-19T01:08:43.315Z,74.70
2018-07-19T01:11:16.497Z,72.20
2018-07-19T01:13:50.831Z,69.70
2018-07-19T01:16:23.897Z,68.00
2018-07-19T01:18:57.132Z,67.20
2018-07-19T01:21:31.248Z,68.30
2018-07-19T01:24:04.494Z,66.80
2018-07-19T01:26:37.698Z,64.90
2018-07-19T01:29:11.058Z,64.60
2018-07-19T01:31:44.177Z,71.10
2018-07-19T01:34:17.365Z,66.10
2018-07-19T01:36:50.445Z,68.30
2018-07-19T01:39:23.524Z,65.00
2018-07-19T01:42:34.184Z,66.80
2018-07-19T01:45:07.943Z,64.00
2018-07-19T01:47:41.429Z,66.90
2018-07-19T01:50:14.966Z,64.60
2018-07-19T01:52:48.219Z,64.10
2018-07-19T01:55:21.471Z,63.10
2018-07-19T01:57:55.191Z,60.90
2018-07-19T02:00:28.248Z,62.80
2018-07-19T02:03:01.834Z,62.10
2018-07-19T02:05:35.352Z,61.10
2018-07-19T02:08:08.831Z,61.90
2018-07-19T02:10:41.988Z,61.00
2018-07-19T02:13:15.078Z,59.50
2018-07-19T02:15:48.307Z,60.70
2018-07-19T02:18:21.400Z,61.10
2018-07-19T02:20:54.595Z,61.00
2018-07-19T02:23:27.853Z,62.60
2018-07-19T02:26:01.069Z,61.60
2018-07-19T02:28:34.305Z,64.00
2018-07-19T02:31:07.306Z,63.80
2018-07-19T02:33:40.420Z,65.30
2018-07-19T02:36:13.538Z,69.70
2018-07-19T02:38:46.745Z,70.40
2018-07-19T02:41:19.773Z,73.20
2018-07-19T02:43:52.943Z,75.00
2018-07-19T02:46:26.112Z,76.50
2018-07-19T02:48:59.493Z,78.60
2018-07-19T02:51:33.734Z,80.00
2018-07-19T02:54:06.834Z,81.00
2018-07-19T02:56:39.989Z,83.30
2018-07-19T02:59:13.072Z,82.50
2018-07-19T03:01:46.325Z,83.20
2018-07-19T03:04:21.299Z,83.70
2018-07-19T03:07:06.385Z,84.10
2018-07-19T03:09:39.475Z,85.60
2018-07-19T03:12:12.608Z,84.60
2018-07-19T03:14:45.881Z,84.90
2018-07-19T03:17:18.966Z,84.90
2018-07-19T03:19:52.465Z,83.40
2018-07-19T03:22:25.532Z,85.10
2018-07-19T03:24:58.753Z,85.10
2018-07-19T03:27:31.863Z,86.40
2018-07-19T03:30:04.983Z,85.90
2018-07-19T03:32:38.299Z,86.90
2018-07-19T03:35:11.455Z,89.60
2018-07-19T03:37:44.620Z,87.90
2018-07-19T03:40:17.757Z,89.10
2018-07-19T03:42:50.832Z,89.50
2018-07-19T03:45:24.097Z,89.30
2018-07-19T03:47:57.029Z,89.70
2018-07-19T03:50:30.142Z,89.60
2018-07-19T03:53:03.235Z,89.80
2018-07-19T03:55:36.251Z,90.20
2018-07-19T03:58:09.312Z,90.60
2018-07-19T04:00:42.518Z,90.70
2018-07-19T04:03:15.717Z,91.20
2018-07-19T04:05:48.964Z,91.20
2018-07-19T04:08:22.146Z,91.70
2018-07-19T04:10:55.228Z,92.00
2018-07-19T04:13:28.194Z,92.30
2018-07-19T04:16:01.501Z,92.70
2018-07-19T04:18:34.803Z,92.80
2018-07-19T04:21:08.218Z,92.90
2018-07-19T04:23:41.700Z,92.60
2018-07-19T04:26:16.400Z,92.60
2018-07-19T04:28:49.466Z,93.00
2018-07-19T04:31:22.837Z,92.90
2018-07-19T04:33:57.075Z,92.90
2018-07-19T04:36:30.213Z,92.80
2018-07-19T04:39:03.476Z,92.80
2018-07-19T04:41:36.730Z,93.30
2018-07-19T04:44:10.273Z,93.40
2018-07-19T04:46:43.564Z,93.40
2018-07-19T04:49:19.691Z,93.30
2018-07-19T04:51:53.042Z,93.50
2018-07-19T04:54:26.109Z,93.70
2018-07-19T04:56:59.156Z,93.70
2018-07-19T04:59:32.321Z,93.90
2018-07-19T05:02:05.499Z,93.80
2018-07-19T05:04:38.685Z,94.00
2018-07-19T05:07:11.800Z,94.30
2018-07-19T05:09:45.063Z,94.20
2018-07-19T05:12:18.295Z,94.10
2018-07-19T05:14:52.604Z,94.00
2018-07-19T05:17:25.712Z,94.30
2018-07-19T05:19:58.998Z,94.50
2018-07-19T05:22:32.146Z,94.60
2018-07-19T05:25:05.309Z,94.60
2018-07-19T05:27:38.612Z,95.10
2018-07-19T05:30:11.653Z,94.70
2018-07-19T05:32:45.529Z,94.80
2018-07-19T05:35:18.569Z,95.10
2018-07-19T05:37:51.827Z,95.30
2018-07-19T05:40:25.060Z,95.30
2018-07-19T05:42:58.242Z,95.30
2018-07-19T05:45:32.179Z,95.60
2018-07-19T05:48:05.150Z,95.70
2018-07-19T05:50:39.153Z,95.60
2018-07-19T05:53:12.281Z,95.90
2018-07-19T05:55:45.399Z,96.10
2018-07-19T05:58:18.727Z,96.40
2018-07-19T06:00:51.797Z,96.20
2018-07-19T06:03:24.982Z,96.70
2018-07-19T06:05:58.416Z,96.80
2018-07-19T06:08:31.625Z,96.80
2018-07-19T06:11:04.562Z,96.80
2018-07-19T06:13:38.004Z,97.10
2018-07-19T06:16:11.111Z,97.30
2018-07-19T06:18:44.440Z,97.70
2018-07-19T06:21:17.658Z,97.80
2018-07-19T06:23:51.038Z,97.80
2018-07-19T06:26:24.118Z,97.90
2018-07-19T06:28:57.639Z,98.20
2018-07-19T06:31:30.730Z,98.10
2018-07-19T06:34:04.064Z,98.40
2018-07-19T06:36:37.139Z,98.10
2018-07-19T06:39:12.028Z,98.00
2018-07-19T06:41:45.238Z,98.10
2018-07-19T06:44:18.289Z,98.30
2018-07-19T06:46:51.436Z,98.30
2018-07-19T06:49:24.715Z,98.30
2018-07-19T06:51:57.737Z,98.60
2018-07-19T06:54:31.743Z,98.70
2018-07-19T06:57:04.869Z,98.90
2018-07-19T06:59:38.261Z,98.80
2018-07-19T07:02:11.744Z,98.90
2018-07-19T07:04:44.820Z,99.00
2018-07-19T07:07:17.836Z,99.20
2018-07-19T07:09:51.098Z,99.50
2018-07-19T07:12:24.264Z,99.60
2018-07-19T07:14:57.345Z,99.60
2018-07-19T07:17:30.305Z,99.90
2018-07-19T07:20:03.533Z,99.60
2018-07-19T07:22:37.516Z,99.60
2018-07-19T07:25:10.575Z,99.60
2018-07-19T07:27:43.606Z,99.70
2018-07-19T07:30:16.768Z,99.70
2018-07-19T07:32:49.821Z,99.90
2018-07-19T07:35:22.921Z,99.60
2018-07-19T07:37:56.159Z,99.60
2018-07-19T07:40:29.339Z,99.90
2018-07-19T07:43:02.387Z,99.90
2018-07-19T14:36:32.529Z,99.90
2018-07-19T14:39:06.734Z,99.90
2018-07-19T14:41:43.434Z,99.90
2018-07-19T14:44:16.828Z,99.90
2018-07-19T14:46:50.196Z,99.90
2018-07-19T14:49:23.492Z,99.90
2018-07-19T14:51:56.836Z,99.90
2018-07-19T14:54:30.089Z,99.90
2018-07-19T14:57:03.449Z,99.90
2018-07-19T14:59:36.711Z,99.90
2018-07-19T15:02:10.128Z,99.90
2018-07-19T15:04:43.405Z,99.90
2018-07-19T15:07:16.728Z,99.90
2018-07-19T15:09:50.089Z,99.90
2018-07-19T15:12:23.431Z,99.90
2018-07-19T15:14:56.894Z,99.90
2018-07-19T15:17:30.283Z,99.90
2018-07-19T15:20:03.660Z,99.90
2018-07-19T15:22:37.049Z,99.90
2018-07-19T15:25:10.456Z,99.90
2018-07-19T15:27:43.773Z,99.90
2018-07-19T15:30:16.961Z,99.90
2018-07-19T15:32:50.480Z,99.90
2018-07-19T15:35:23.988Z,99.30
2018-07-19T15:37:57.980Z,99.90
2018-07-19T15:40:31.296Z,99.40
2018-07-19T15:43:04.566Z,99.70
2018-07-19T15:45:37.854Z,99.70
2018-07-19T15:48:11.443Z,99.30
2018-07-19T15:50:44.793Z,99.30
2018-07-19T15:53:18.081Z,99.30
2018-07-19T15:55:51.395Z,99.20
2018-07-19T15:58:24.760Z,99.60
2018-07-19T16:00:58.135Z,99.10
2018-07-19T16:03:31.679Z,98.80
2018-07-19T16:06:04.997Z,99.10
2018-07-19T16:08:38.341Z,98.70
2018-07-19T16:11:11.789Z,98.40
2018-07-19T16:13:45.154Z,97.80
2018-07-19T16:16:18.533Z,98.30
2018-07-19T16:18:51.888Z,98.30
2018-07-19T16:21:25.430Z,98.20
2018-07-19T16:23:58.842Z,98.20
2018-07-19T16:26:32.282Z,98.60
2018-07-19T16:29:05.662Z,98.50
2018-07-19T16:31:39.111Z,98.90
2018-07-19T16:34:12.465Z,98.70
2018-07-19T16:36:45.799Z,98.90
2018-07-19T16:39:19.095Z,98.90
2018-07-19T16:41:52.635Z,98.70
2018-07-19T16:44:26.148Z,98.30
2018-07-19T16:46:59.514Z,98.10
2018-07-19T16:49:32.931Z,98.60
2018-07-19T16:52:06.261Z,98.20
2018-07-19T16:54:39.619Z,98.60
2018-07-19T16:57:12.978Z,98.60
2018-07-19T16:59:46.315Z,98.60
2018-07-19T17:02:19.655Z,98.80
2018-07-19T17:04:52.706Z,98.90
2018-07-19T17:07:25.818Z,98.80
2018-07-19T17:09:58.922Z,98.90
2018-07-19T17:12:32.212Z,98.40
2018-07-19T17:15:05.752Z,98.50
2018-07-19T17:17:38.776Z,98.80
2018-07-19T17:20:12.071Z,98.70
2018-07-19T17:22:45.212Z,98.80
2018-07-19T17:25:18.212Z,98.40
2018-07-19T17:27:51.542Z,97.50
2018-07-19T17:30:24.645Z,96.90
2018-07-19T17:32:57.818Z,96.60
2018-07-19T17:35:30.958Z,97.40
2018-07-19T17:38:03.916Z,96.70
2018-07-19T17:40:37.198Z,96.60
2018-07-19T17:43:10.602Z,96.60
2018-07-19T17:45:43.583Z,96.80
2018-07-19T17:48:16.509Z,96.60
2018-07-19T17:50:49.632Z,97.00
2018-07-19T17:53:22.606Z,97.10
2018-07-19T17:55:55.744Z,96.90
2018-07-19T17:58:28.846Z,96.90
2018-07-19T18:01:02.026Z,96.80
2018-07-19T18:03:35.211Z,96.50
2018-07-19T18:06:08.547Z,96.90
2018-07-19T18:08:42.637Z,96.40
2018-07-19T18:11:15.762Z,97.20
2018-07-19T18:13:48.968Z,97.20
2018-07-19T18:16:21.964Z,97.10
2018-07-19T18:18:55.085Z,97.10
2018-07-19T18:21:28.285Z,97.20
2018-07-19T18:24:01.243Z,97.30
2018-07-19T18:26:34.217Z,97.10
2018-07-19T18:29:07.371Z,97.00
2018-07-19T18:31:40.558Z,96.90
2018-07-19T18:34:13.764Z,97.30
2018-07-19T18:36:47.146Z,96.70
2018-07-19T18:39:20.387Z,96.70
2018-07-19T18:41:53.681Z,96.70
2018-07-19T18:44:26.835Z,97.10
2018-07-19T18:46:59.974Z,97.10
2018-07-19T18:49:33.199Z,97.60
2018-07-19T18:52:06.421Z,97.70
2018-07-19T18:54:39.644Z,97.80
2018-07-19T18:57:12.598Z,97.60
2018-07-19T18:59:45.572Z,97.50
2018-07-19T19:02:19.031Z,97.30
2018-07-19T19:04:52.151Z,97.10
2018-07-19T19:07:25.108Z,97.60
2018-07-19T19:09:58.224Z,98.00
2018-07-19T19:12:31.354Z,98.10
2018-07-19T19:15:04.529Z,98.30
2018-07-19T19:17:37.692Z,98.00
2018-07-19T19:20:11.198Z,98.50
2018-07-19T19:22:44.151Z,98.30
2018-07-19T19:25:17.251Z,98.70
2018-07-19T19:28:01.379Z,98.20
2018-07-19T19:30:34.511Z,98.00
2018-07-19T19:33:07.669Z,98.70
2018-07-19T19:35:40.774Z,98.70
2018-07-19T19:38:13.774Z,98.30
2018-07-19T19:40:46.870Z,98.00
2018-07-19T19:43:20.221Z,97.80
2018-07-19T19:45:53.365Z,98.40
2018-07-19T19:48:26.473Z,97.90
2018-07-19T19:50:59.611Z,97.80
2018-07-19T19:53:32.727Z,97.90
2018-07-19T19:56:06.175Z,98.50
2018-07-19T19:58:39.370Z,98.90
2018-07-19T20:01:12.564Z,99.20
2018-07-19T20:03:45.820Z,99.90
2018-07-19T20:06:19.063Z,99.40
2018-07-19T20:08:52.192Z,99.90
2018-07-19T20:11:25.185Z,99.90
2018-07-19T20:13:58.307Z,99.90
2018-07-19T20:16:31.486Z,99.90
2018-07-19T20:19:04.572Z,99.90
2018-07-19T20:21:37.703Z,99.90
2018-07-19T20:24:10.845Z,99.70
2018-07-19T20:26:43.988Z,98.90
2018-07-19T20:29:16.981Z,99.20
2018-07-19T20:31:50.217Z,99.00
2018-07-19T20:34:23.315Z,98.80
2018-07-19T20:36:56.622Z,98.50
2018-07-19T20:39:29.596Z,98.70
2018-07-19T20:42:02.734Z,98.70
2018-07-19T20:44:35.707Z,98.80
2018-07-19T20:47:09.053Z,98.50
2018-07-19T20:49:42.236Z,96.80
2018-07-19T20:52:15.437Z,96.30
2018-07-19T20:54:48.447Z,96.30
2018-07-19T20:57:21.791Z,96.60
2018-07-19T20:59:54.912Z,96.40
2018-07-19T21:02:27.937Z,95.90
2018-07-19T21:05:01.148Z,95.50
2018-07-19T21:07:34.313Z,95.70
2018-07-19T21:10:07.623Z,95.60
2018-07-19T21:12:41.010Z,95.40
2018-07-19T21:15:14.150Z,94.90
2018-07-19T21:17:47.181Z,94.30
2018-07-19T21:20:20.329Z,93.90
2018-07-19T21:22:53.407Z,93.60
2018-07-19T21:25:26.549Z,94.20
2018-07-19T21:28:00.791Z,93.50
2018-07-19T21:30:33.811Z,94.00
2018-07-19T21:33:07.119Z,94.80
2018-07-19T21:35:40.432Z,94.40
2018-07-19T21:38:13.371Z,94.50
2018-07-19T21:40:46.381Z,94.50
2018-07-19T21:43:19.534Z,93.80
2018-07-19T21:45:52.921Z,93.20
2018-07-19T21:48:26.161Z,92.60
2018-07-19T21:50:59.409Z,92.70
2018-07-19T21:53:32.776Z,92.20
2018-07-19T21:56:06.227Z,92.90
2018-07-19T21:58:39.318Z,92.60
2018-07-19T22:01:13.596Z,93.00
2018-07-19T22:03:47.199Z,92.80
2018-07-19T22:06:20.540Z,92.20
2018-07-19T22:08:53.647Z,91.60
2018-07-19T22:11:26.859Z,91.50
2018-07-19T22:13:59.957Z,90.70
2018-07-19T22:16:32.925Z,90.50
2018-07-19T22:19:06.113Z,90.80
2018-07-19T22:21:39.191Z,91.50
2018-07-19T22:24:12.804Z,92.10
2018-07-19T22:26:45.981Z,92.70
2018-07-19T22:29:18.931Z,92.10
2018-07-19T22:31:52.181Z,92.60
2018-07-19T22:34:25.293Z,92.00
2018-07-19T22:37:01.066Z,92.50
2018-07-19T22:39:33.957Z,91.60
2018-07-19T22:42:07.210Z,92.30
2018-07-19T22:44:40.354Z,91.40
2018-07-19T22:47:13.420Z,91.60
2018-07-19T22:49:46.695Z,91.30
2018-07-19T22:52:19.621Z,91.50
2018-07-19T22:54:52.674Z,91.70
2018-07-19T22:57:25.887Z,92.00
2018-07-19T22:59:59.156Z,91.30
2018-07-19T23:02:32.327Z,90.90
2018-07-19T23:05:05.570Z,90.50
2018-07-19T23:07:38.676Z,91.20
2018-07-19T23:10:11.705Z,91.80
2018-07-19T23:12:44.782Z,90.90
2018-07-19T23:15:17.851Z,90.00
2018-07-19T23:17:50.966Z,88.50
2018-07-19T23:20:24.139Z,89.70
2018-07-19T23:22:58.979Z,89.40
2018-07-19T23:25:32.226Z,90.00
2018-07-19T23:28:05.787Z,90.60
2018-07-19T23:30:39.775Z,90.30
2018-07-19T23:33:13.138Z,90.90
2018-07-19T23:35:50.104Z,90.40
2018-07-19T23:38:28.395Z,90.80
2018-07-19T23:41:03.757Z,90.50
2018-07-19T23:43:40.244Z,90.60
2018-07-19T23:46:21.833Z,90.40
2018-07-19T23:48:55.221Z,90.60
2018-07-19T23:51:28.294Z,90.50
2018-07-19T23:54:01.352Z,90.40
2018-07-19T23:56:34.662Z,91.10
2018-07-19T23:59:07.787Z,91.10
